Time;durP1;ratioP1;P1;durP2;ratioP2;P2;SDS_P1;SDS_P2;PMS_P1;PMS_P2;Temp;Humidity;BMP_temperature;BMP_pressure;BME280_temperature;BME280_humidity;BME280_pressure;Samples;Min_cycle;Max_cycle;Signal;HPM_P1;HPM_P2
2023/05/08 00:00:23;;;;;;;13.77;9.15;;;15.20;95.00;;;;;;6159087;22;91427;-82
2023/05/08 00:02:48;;;;;;;12.55;8.88;;;15.10;95.10;;;;;;6187616;22;87298;-82
2023/05/08 00:05:14;;;;;;;10.68;7.00;;;15.10;95.10;;;;;;6159055;22;91191;-81
2023/05/08 00:07:40;;;;;;;10.68;7.80;;;15.10;94.80;;;;;;6158807;22;91053;-81
2023/05/08 00:10:07;;;;;;;11.30;8.35;;;15.10;94.70;;;;;;6159643;22;90492;-81
2023/05/08 00:12:33;;;;;;;9.48;7.15;;;15.00;94.60;;;;;;6158653;22;87592;-81
2023/05/08 00:14:59;;;;;;;11.18;8.80;;;15.00;94.60;;;;;;6186915;22;87338;-81
2023/05/08 00:17:25;;;;;;;9.75;7.25;;;15.00;94.70;;;;;;6158587;22;92824;-81
2023/05/08 00:19:51;;;;;;;9.45;7.53;;;15.00;94.70;;;;;;6159574;22;94814;-81
2023/05/08 00:22:17;;;;;;;11.13;8.02;;;15.00;94.60;;;;;;6159891;22;87301;-81
2023/05/08 00:24:43;;;;;;;10.68;8.05;;;15.00;94.60;;;;;;6187209;22;87440;-81
2023/05/08 00:27:09;;;;;;;9.80;8.32;;;15.00;94.80;;;;;;6161260;22;91101;-81
2023/05/08 00:29:34;;;;;;;11.50;9.20;;;15.00;94.90;;;;;;6187461;22;88016;-80
2023/05/08 00:32:00;;;;;;;11.65;8.52;;;15.00;95.20;;;;;;6160115;22;87758;-81
2023/05/08 00:34:26;;;;;;;16.63;12.18;;;15.00;95.10;;;;;;6160182;22;90546;-81
2023/05/08 00:36:52;;;;;;;16.05;11.93;;;15.00;95.40;;;;;;6159435;22;90472;-81
2023/05/08 00:39:17;;;;;;;17.80;12.50;;;15.00;95.80;;;;;;6187414;22;88302;-81
2023/05/08 00:41:43;;;;;;;15.80;13.57;;;15.00;95.90;;;;;;6186099;22;88403;-81
2023/05/08 00:44:09;;;;;;;18.52;13.90;;;15.00;95.90;;;;;;6185514;22;87461;-80
2023/05/08 00:46:35;;;;;;;18.67;14.05;;;15.00;96.00;;;;;;6159063;22;91310;-81
2023/05/08 00:49:03;;;;;;;18.52;14.35;;;15.00;96.00;;;;;;6159282;22;91374;-81
2023/05/08 00:51:30;;;;;;;17.40;12.70;;;15.00;96.20;;;;;;6186856;22;87349;-80
2023/05/08 00:53:58;;;;;;;17.75;13.70;;;15.00;96.10;;;;;;6160560;22;90225;-81
2023/05/08 00:56:24;;;;;;;19.25;14.50;;;15.00;96.00;;;;;;6186361;22;87182;-81
2023/05/08 00:58:50;;;;;;;20.77;12.00;;;15.10;95.90;;;;;;6159748;22;91802;-82
2023/05/08 01:01:17;;;;;;;19.65;13.35;;;15.10;95.80;;;;;;6185002;22;87671;-81
2023/05/08 01:03:43;;;;;;;18.27;13.98;;;15.10;96.00;;;;;;6159408;22;90456;-81
2023/05/08 01:06:09;;;;;;;18.15;12.88;;;15.10;95.80;;;;;;6159698;22;91090;-81
2023/05/08 01:08:35;;;;;;;18.25;12.43;;;15.00;95.70;;;;;;6158968;22;91284;-80
2023/05/08 01:11:20;;;;;;;18.08;13.63;;;15.00;95.70;;;;;;6186354;22;87618;-81
2023/05/08 01:14:04;;;;;;;16.70;13.75;;;15.00;95.80;;;;;;6157857;22;90879;-80
2023/05/08 01:16:50;;;;;;;15.65;11.65;;;15.00;95.80;;;;;;6156983;22;90217;-82
2023/05/08 01:19:26;;;;;;;17.90;12.63;;;15.00;95.50;;;;;;6181336;22;89039;-80
2023/05/08 01:21:59;;;;;;;15.13;11.85;;;15.00;95.40;;;;;;6183318;22;87427;-81
2023/05/08 01:24:34;;;;;;;;;;;15.00;95.40;;;;;;6160096;22;90430;-82
2023/05/08 01:27:32;;;;;;;20.33;13.23;;;15.00;95.60;;;;;;6190296;22;88786;-81
2023/05/08 01:30:15;;;;;;;20.63;14.15;;;15.00;95.60;;;;;;6159779;22;94394;-81
2023/05/08 01:32:45;;;;;;;17.63;12.88;;;15.00;95.60;;;;;;6159421;22;88498;-81
2023/05/08 01:35:17;;;;;;;18.13;14.13;;;15.00;95.60;;;;;;6159424;22;90083;-81
2023/05/08 01:37:57;;;;;;;18.88;13.75;;;15.00;95.80;;;;;;6159475;22;90331;-81
2023/05/08 01:40:44;;;;;;;21.17;15.63;;;15.00;95.90;;;;;;6185421;22;91075;-81
2023/05/08 01:43:18;;;;;;;21.10;16.80;;;14.90;96.00;;;;;;6160536;22;87459;-81
2023/05/08 01:45:47;;;;;;;21.50;16.63;;;15.00;96.20;;;;;;6159913;22;89850;-81
2023/05/08 01:48:18;;;;;;;26.65;18.38;;;14.90;96.30;;;;;;6160959;22;90180;-81
2023/05/08 01:50:47;;;;;;;28.17;18.25;;;15.00;96.60;;;;;;6160399;22;92053;-81
2023/05/08 01:53:26;;;;;;;26.30;17.92;;;14.90;96.50;;;;;;6187899;22;87498;-81
2023/05/08 01:55:57;;;;;;;28.23;18.70;;;15.00;96.70;;;;;;6160919;22;90153;-82
2023/05/08 01:58:25;;;;;;;27.02;19.17;;;14.90;96.80;;;;;;6160123;22;94111;-81
2023/05/08 02:00:52;;;;;;;27.17;18.85;;;15.00;96.80;;;;;;6159042;22;94656;-81
2023/05/08 02:03:21;;;;;;;23.92;18.73;;;15.00;96.70;;;;;;6161998;22;87363;-81
2023/05/08 02:05:50;;;;;;;28.50;20.08;;;14.90;96.60;;;;;;6187810;22;91563;-81
2023/05/08 02:08:17;;;;;;;29.10;20.00;;;14.90;96.80;;;;;;6160094;22;91674;-81
2023/05/08 02:10:46;;;;;;;29.02;21.08;;;15.00;96.90;;;;;;6160259;22;91386;-81
2023/05/08 02:13:13;;;;;;;27.58;19.27;;;15.00;97.10;;;;;;6160076;22;87708;-81
2023/05/08 02:15:40;;;;;;;26.60;19.85;;;15.00;97.10;;;;;;6187218;22;87386;-81
2023/05/08 02:18:08;;;;;;;29.30;20.20;;;14.90;97.10;;;;;;6161387;22;91492;-81
2023/05/08 02:20:34;;;;;;;26.88;19.55;;;15.00;97.00;;;;;;6160430;22;91127;-81
2023/05/08 02:23:01;;;;;;;27.85;20.23;;;14.90;96.80;;;;;;6159773;22;88435;-81
2023/05/08 02:25:29;;;;;;;27.35;20.33;;;15.00;96.90;;;;;;6160031;22;88656;-81
2023/05/08 02:27:56;;;;;;;28.45;20.92;;;14.90;96.80;;;;;;6159138;22;91826;-82
2023/05/08 02:30:25;;;;;;;28.58;20.33;;;14.90;96.90;;;;;;6160693;22;91186;-81
2023/05/08 02:32:52;;;;;;;27.05;20.35;;;15.00;96.90;;;;;;6188808;22;87422;-82
2023/05/08 02:35:19;;;;;;;29.85;19.48;;;14.90;96.80;;;;;;6160716;22;89926;-81
2023/05/08 02:37:50;;;;;;;36.17;21.77;;;14.90;96.70;;;;;;6187485;22;87501;-81
2023/05/08 02:40:17;;;;;;;29.45;20.30;;;14.90;97.00;;;;;;6160994;22;91562;-81
2023/05/08 02:42:44;;;;;;;33.08;22.63;;;14.90;96.90;;;;;;6161666;22;87603;-81
2023/05/08 02:45:11;;;;;;;34.50;22.38;;;14.90;96.90;;;;;;6163282;22;89184;-81
2023/05/08 02:48:12;;;;;;;28.05;20.25;;;14.90;96.90;;;;;;6162643;22;92613;-81
2023/05/08 02:51:01;;;;;;;24.58;18.90;;;14.90;96.70;;;;;;6151507;22;90965;-81
2023/05/08 02:53:53;;;;;;;30.55;20.98;;;14.90;96.40;;;;;;6158745;22;87010;-81
2023/05/08 02:56:39;;;;;;;33.63;22.73;;;14.90;96.60;;;;;;6158278;22;89119;-80
2023/05/08 02:59:24;;;;;;;35.90;23.20;;;14.90;96.80;;;;;;6182932;22;88587;-80
2023/05/08 03:02:14;;;;;;;40.40;25.30;;;14.90;96.90;;;;;;6155583;22;89539;-81
2023/05/08 03:05:03;;;;;;;36.75;24.77;;;14.80;97.00;;;;;;6173624;22;87353;-80
2023/05/08 03:07:31;;;;;;;33.30;23.25;;;14.90;97.10;;;;;;6158817;22;90258;-80
2023/05/08 03:10:02;;;;;;;34.08;23.58;;;14.80;97.00;;;;;;6158359;22;91502;-80
2023/05/08 03:12:31;;;;;;;32.95;22.45;;;14.80;97.10;;;;;;6156211;22;89621;-80
2023/05/08 03:15:05;;;;;;;41.63;25.65;;;14.80;97.10;;;;;;6159408;22;88304;-81
2023/05/08 03:17:34;;;;;;;40.83;26.77;;;14.80;97.30;;;;;;6158332;22;91940;-79
2023/05/08 03:20:05;;;;;;;43.05;27.88;;;14.80;97.20;;;;;;6158360;22;90248;-81
2023/05/08 03:22:33;;;;;;;36.75;25.33;;;14.80;97.20;;;;;;6157933;22;92655;-81
2023/05/08 03:25:01;;;;;;;41.80;26.38;;;14.80;97.00;;;;;;6157950;22;87615;-81
2023/05/08 03:27:28;;;;;;;51.53;29.55;;;14.80;97.10;;;;;;6185071;22;87110;-80
2023/05/08 03:29:55;;;;;;;41.60;26.50;;;14.80;97.10;;;;;;6184567;22;90853;-80
2023/05/08 03:32:23;;;;;;;43.70;27.02;;;14.80;97.00;;;;;;6186146;22;88091;-81
2023/05/08 03:34:50;;;;;;;49.50;28.92;;;14.80;97.10;;;;;;6156962;22;87411;-81
2023/05/08 03:37:16;;;;;;;47.63;30.50;;;14.80;97.10;;;;;;6184886;22;87184;-80
2023/05/08 03:39:42;;;;;;;49.70;30.30;;;14.80;97.10;;;;;;6158031;22;92118;-80
2023/05/08 03:42:08;;;;;;;54.78;30.48;;;14.70;97.20;;;;;;6159706;22;92078;-80
2023/05/08 03:44:35;;;;;;;47.30;29.13;;;14.70;97.30;;;;;;6183916;22;87434;-80
2023/05/08 03:47:02;;;;;;;50.85;29.42;;;14.70;97.30;;;;;;6185049;22;87392;-81
2023/05/08 03:49:30;;;;;;;53.63;29.98;;;14.70;97.10;;;;;;6185625;22;88611;-80
2023/05/08 03:51:56;;;;;;;49.28;27.90;;;14.70;97.10;;;;;;6185501;22;88467;-80
2023/05/08 03:54:24;;;;;;;47.63;30.33;;;14.70;97.10;;;;;;6159574;22;87216;-80
2023/05/08 03:56:52;;;;;;;48.28;29.27;;;14.70;97.00;;;;;;6186584;22;90603;-80
2023/05/08 04:00:09;;;;;;;59.58;33.45;;;14.70;97.10;;;;;;6158988;22;91559;-80
2023/05/08 04:02:51;;;;;;;64.22;33.83;;;14.70;97.30;;;;;;6152359;22;88392;-80
2023/05/08 04:05:33;;;;;;;70.50;35.45;;;14.70;97.40;;;;;;6186662;22;88388;-80
2023/05/08 04:08:14;;;;;;;99.75;43.67;;;14.70;97.40;;;;;;6186853;22;87253;-80
2023/05/08 04:10:54;;;;;;;95.57;44.72;;;14.70;97.80;;;;;;6186513;22;87678;-80
2023/05/08 04:13:27;;;;;;;92.10;42.45;;;14.80;97.70;;;;;;6186320;22;90771;-80
2023/05/08 04:16:04;;;;;;;134.73;50.23;;;14.80;97.70;;;;;;6161607;22;87171;-80
2023/05/08 04:18:34;;;;;;;138.75;49.95;;;14.80;97.80;;;;;;6187605;22;88018;-80
2023/05/08 04:21:02;;;;;;;144.93;50.42;;;14.80;97.80;;;;;;6161722;22;91045;-81
2023/05/08 04:23:28;;;;;;;159.70;53.20;;;14.80;97.90;;;;;;6189074;22;86865;-80
2023/05/08 04:25:55;;;;;;;147.20;51.17;;;14.80;97.90;;;;;;6159480;22;89249;-80
2023/05/08 04:28:21;;;;;;;170.77;52.50;;;14.80;98.00;;;;;;6186912;22;87455;-80
2023/05/08 04:30:47;;;;;;;143.95;50.78;;;14.80;98.00;;;;;;6160453;22;92885;-80
2023/05/08 04:33:14;;;;;;;148.60;51.40;;;14.70;98.00;;;;;;6162058;22;90599;-80
2023/05/08 04:35:40;;;;;;;146.88;50.40;;;14.70;98.10;;;;;;6159887;22;87171;-80
2023/05/08 04:38:06;;;;;;;174.38;53.63;;;14.70;98.10;;;;;;6159790;22;89264;-80
2023/05/08 04:40:31;;;;;;;175.25;55.08;;;14.70;98.20;;;;;;6160313;22;89817;-80
2023/05/08 04:42:57;;;;;;;156.40;51.95;;;14.70;98.30;;;;;;6160931;22;90899;-80
2023/05/08 04:45:23;;;;;;;149.20;52.63;;;14.70;98.20;;;;;;6159937;22;87487;-81
2023/05/08 04:47:49;;;;;;;138.57;50.58;;;14.70;98.20;;;;;;6161423;22;90184;-80
2023/05/08 04:50:14;;;;;;;161.10;54.72;;;14.80;98.20;;;;;;6160187;22;91322;-80
2023/05/08 04:52:41;;;;;;;165.27;54.33;;;14.70;98.10;;;;;;6160065;22;91394;-80
2023/05/08 04:55:07;;;;;;;141.82;51.70;;;14.70;98.20;;;;;;6185685;22;88423;-80
2023/05/08 04:57:33;;;;;;;143.23;52.20;;;14.70;98.20;;;;;;6159726;22;90469;-80
2023/05/08 04:59:59;;;;;;;153.40;52.35;;;14.70;98.10;;;;;;6188125;22;88479;-80
2023/05/08 05:02:25;;;;;;;142.07;53.53;;;14.70;98.10;;;;;;6186487;22;88554;-80
2023/05/08 05:04:51;;;;;;;154.43;53.15;;;14.70;98.00;;;;;;6186952;22;93790;-80
2023/05/08 05:07:17;;;;;;;187.65;58.55;;;14.80;98.10;;;;;;6187769;22;87736;-80
2023/05/08 05:09:43;;;;;;;216.55;59.40;;;14.80;98.10;;;;;;6161765;22;91567;-80
2023/05/08 05:12:09;;;;;;;259.05;65.22;;;14.80;98.20;;;;;;6189318;22;87618;-81
2023/05/08 05:14:35;;;;;;;256.60;64.07;;;14.70;98.20;;;;;;6162386;22;87387;-81
2023/05/08 05:17:01;;;;;;;282.60;64.97;;;14.70;98.30;;;;;;6187529;22;87299;-80
2023/05/08 05:19:26;;;;;;;235.30;63.90;;;14.80;98.30;;;;;;6160739;22;92187;-80
2023/05/08 05:21:52;;;;;;;275.70;62.15;;;14.80;98.30;;;;;;6160895;22;92469;-80
2023/05/08 05:24:18;;;;;;;277.88;65.00;;;14.80;98.30;;;;;;6187830;22;87553;-80
2023/05/08 05:26:44;;;;;;;256.70;65.18;;;14.80;98.30;;;;;;6186748;22;87285;-80
2023/05/08 05:29:10;;;;;;;256.65;64.35;;;14.80;98.30;;;;;;6157745;22;91523;-81
2023/05/08 05:31:36;;;;;;;252.52;64.47;;;14.80;98.40;;;;;;6186667;22;87896;-80
2023/05/08 05:34:02;;;;;;;232.70;63.55;;;14.80;98.30;;;;;;6187960;22;87624;-80
2023/05/08 05:36:28;;;;;;;212.77;58.95;;;14.80;98.40;;;;;;6159477;22;88815;-80
2023/05/08 05:38:53;;;;;;;234.38;58.95;;;14.80;98.30;;;;;;6160819;22;91457;-80
2023/05/08 05:41:21;;;;;;;215.85;58.88;;;14.80;98.20;;;;;;6185838;22;88506;-79
2023/05/08 05:43:46;;;;;;;212.65;56.22;;;14.80;98.10;;;;;;6184503;22;89102;-80
2023/05/08 05:46:12;;;;;;;192.90;54.17;;;14.80;98.10;;;;;;6185775;22;88073;-80
2023/05/08 05:48:38;;;;;;;192.10;54.22;;;14.80;98.10;;;;;;6186506;22;88422;-80
2023/05/08 05:51:03;;;;;;;185.00;53.20;;;14.80;98.00;;;;;;6162864;22;90974;-81
2023/05/08 05:53:29;;;;;;;183.70;52.72;;;14.90;97.90;;;;;;6189937;22;87546;-81
2023/05/08 05:55:55;;;;;;;186.15;51.85;;;14.90;97.70;;;;;;6162259;22;90444;-81
2023/05/08 05:58:21;;;;;;;174.68;53.15;;;14.90;97.60;;;;;;6159195;22;90046;-81
2023/05/08 06:00:47;;;;;;;184.63;54.10;;;15.00;97.60;;;;;;6188870;22;88302;-81
2023/05/08 06:03:13;;;;;;;167.40;53.40;;;15.00;97.30;;;;;;6162327;22;87532;-80
2023/05/08 06:05:39;;;;;;;197.68;57.60;;;15.10;97.30;;;;;;6186428;22;87010;-81
2023/05/08 06:08:05;;;;;;;177.65;54.15;;;15.20;97.20;;;;;;6157166;22;92522;-80
2023/05/08 06:10:31;;;;;;;162.30;51.10;;;15.30;97.20;;;;;;6185787;22;95103;-79
2023/05/08 06:12:57;;;;;;;154.02;52.17;;;15.20;96.90;;;;;;6186199;22;87805;-80
2023/05/08 06:15:25;;;;;;;159.57;53.28;;;15.40;96.80;;;;;;6191446;22;87467;-81
2023/05/08 06:21:02;;;;;;;148.07;51.38;;;15.50;96.50;;;;;;6150960;22;89006;-84
2023/05/08 06:23:29;;;;;;;144.85;51.13;;;15.50;96.50;;;;;;6190910;22;87041;-86
2023/05/08 06:25:55;;;;;;;145.02;52.00;;;15.60;96.30;;;;;;6189523;22;86985;-85
2023/05/08 06:29:00;;;;;;;148.15;52.00;;;15.70;96.10;;;;;;6186924;22;87234;-86
2023/05/08 06:31:32;;;;;;;153.25;53.15;;;15.60;95.90;;;;;;6186132;22;91721;-81
2023/05/08 06:33:58;;;;;;;153.60;55.55;;;15.70;96.10;;;;;;6158760;22;88299;-81
2023/05/08 06:36:24;;;;;;;151.98;55.08;;;15.70;96.10;;;;;;6185510;22;87461;-78
2023/05/08 06:38:49;;;;;;;166.20;55.83;;;15.70;96.00;;;;;;6159592;22;89873;-77
2023/05/08 06:41:15;;;;;;;161.63;56.72;;;15.70;96.00;;;;;;6185469;22;88641;-78
2023/05/08 06:43:41;;;;;;;157.30;54.97;;;15.70;95.90;;;;;;6159325;22;87589;-79
2023/05/08 06:46:07;;;;;;;162.32;57.05;;;15.70;95.90;;;;;;6184561;22;87045;-79
2023/05/08 06:48:34;;;;;;;154.65;54.15;;;15.70;95.90;;;;;;6185393;22;89547;-79
2023/05/08 06:51:00;;;;;;;153.73;55.13;;;15.70;95.90;;;;;;6159608;22;91296;-79
2023/05/08 06:53:26;;;;;;;149.13;52.20;;;15.70;95.60;;;;;;6156613;22;87360;-79
2023/05/08 06:55:52;;;;;;;144.07;53.22;;;15.70;95.40;;;;;;6184423;22;87646;-79
2023/05/08 06:58:17;;;;;;;147.63;52.65;;;15.70;95.20;;;;;;6180578;22;89489;-79
2023/05/08 07:00:43;;;;;;;140.68;50.13;;;15.70;95.20;;;;;;6181029;22;88928;-79
2023/05/08 07:03:09;;;;;;;144.77;50.60;;;15.70;95.00;;;;;;6158073;22;87565;-79
2023/05/08 07:05:34;;;;;;;143.75;51.55;;;15.80;95.10;;;;;;6185292;22;87698;-78
2023/05/08 07:08:00;;;;;;;139.45;51.25;;;15.80;95.00;;;;;;6158227;22;91973;-78
2023/05/08 07:10:26;;;;;;;145.10;52.08;;;15.90;94.90;;;;;;6158038;22;90525;-78
2023/05/08 07:12:52;;;;;;;154.27;53.00;;;15.90;94.90;;;;;;6186004;22;87294;-78
2023/05/08 07:15:18;;;;;;;162.48;55.67;;;16.00;94.70;;;;;;6159830;22;87689;-79
2023/05/08 07:17:43;;;;;;;154.23;54.88;;;15.90;94.70;;;;;;6157456;22;90941;-79
2023/05/08 07:20:09;;;;;;;159.13;53.30;;;15.90;94.70;;;;;;6157797;22;91201;-79
2023/05/08 07:22:35;;;;;;;142.82;51.80;;;15.90;94.40;;;;;;6184248;22;88439;-77
2023/05/08 07:25:01;;;;;;;146.85;50.40;;;15.90;94.30;;;;;;6158087;22;90694;-76
2023/05/08 07:27:27;;;;;;;129.88;48.25;;;15.90;94.50;;;;;;6184344;22;87941;-77
2023/05/08 07:29:52;;;;;;;135.85;46.17;;;16.00;94.30;;;;;;6186649;22;88889;-77
2023/05/08 07:32:18;;;;;;;114.82;45.47;;;16.00;94.00;;;;;;6158140;22;87502;-77
2023/05/08 07:34:44;;;;;;;110.20;45.35;;;16.00;93.80;;;;;;6184874;22;87506;-78
2023/05/08 07:37:10;;;;;;;111.95;43.40;;;16.10;93.70;;;;;;6158159;22;90068;-78
2023/05/08 07:39:36;;;;;;;96.10;42.70;;;16.20;93.60;;;;;;6184681;22;88975;-78
2023/05/08 07:42:02;;;;;;;96.30;42.17;;;16.30;93.40;;;;;;6186436;22;87134;-77
2023/05/08 07:44:29;;;;;;;88.95;39.28;;;16.30;93.10;;;;;;6185066;22;87719;-78
2023/05/08 07:46:55;;;;;;;100.47;41.78;;;16.30;93.10;;;;;;6184580;22;89989;-78
2023/05/08 07:49:21;;;;;;;104.05;42.65;;;16.40;93.00;;;;;;6158177;22;92602;-79
2023/05/08 07:51:47;;;;;;;95.47;41.30;;;16.50;93.10;;;;;;6183069;22;87516;-79
2023/05/08 07:54:13;;;;;;;101.53;40.72;;;16.50;92.90;;;;;;6186296;22;87531;-79
2023/05/08 07:56:39;;;;;;;98.88;43.40;;;16.60;93.10;;;;;;6184134;22;88621;-79
2023/05/08 07:59:04;;;;;;;97.07;42.17;;;16.70;92.70;;;;;;6157912;22;90249;-79
2023/05/08 08:01:30;;;;;;;92.97;40.85;;;16.70;92.50;;;;;;6184193;22;87087;-79
2023/05/08 08:03:56;;;;;;;98.80;40.75;;;16.80;92.60;;;;;;6157171;22;89622;-81
2023/05/08 08:06:21;;;;;;;95.25;42.58;;;16.90;92.50;;;;;;6184278;22;88462;-78
2023/05/08 08:08:47;;;;;;;92.95;41.03;;;17.00;92.50;;;;;;6159030;22;90817;-78
2023/05/08 08:11:13;;;;;;;90.45;41.42;;;17.10;92.40;;;;;;6184048;22;88227;-78
2023/05/08 08:13:38;;;;;;;95.18;41.97;;;17.30;91.10;;;;;;6182106;22;87473;-77
2023/05/08 08:16:05;;;;;;;91.05;41.13;;;17.30;91.30;;;;;;6157722;22;89817;-77
2023/05/08 08:18:35;;;;;;;91.22;40.85;;;17.40;90.80;;;;;;6186163;22;87713;-77
2023/05/08 08:21:05;;;;;;;90.25;40.22;;;17.40;90.50;;;;;;6184688;22;87412;-78
2023/05/08 08:23:30;;;;;;;100.07;43.15;;;17.50;90.70;;;;;;6157696;22;88811;-78
2023/05/08 08:25:56;;;;;;;95.82;41.45;;;17.50;90.60;;;;;;6184968;22;88524;-78
2023/05/08 08:28:22;;;;;;;95.53;42.67;;;17.60;90.50;;;;;;6185663;22;88194;-78
2023/05/08 08:30:47;;;;;;;97.50;43.33;;;17.70;90.10;;;;;;6158873;22;87487;-78
2023/05/08 08:33:13;;;;;;;92.35;43.53;;;17.80;90.80;;;;;;6157141;22;90597;-78
2023/05/08 08:35:38;;;;;;;90.65;41.08;;;17.90;89.10;;;;;;6154819;22;92581;-77
2023/05/08 08:38:04;;;;;;;90.82;41.83;;;18.00;88.80;;;;;;6185407;22;88906;-78
2023/05/08 08:40:30;;;;;;;89.22;39.72;;;18.00;89.30;;;;;;6187587;22;87641;-78
2023/05/08 08:42:56;;;;;;;87.65;39.65;;;18.10;89.10;;;;;;6185797;22;87330;-77
2023/05/08 08:45:22;;;;;;;89.25;42.17;;;18.20;87.60;;;;;;6185745;22;88965;-79
2023/05/08 08:47:51;;;;;;;102.50;47.60;;;18.20;88.30;;;;;;6186200;22;88595;-79
2023/05/08 08:50:19;;;;;;;99.78;45.08;;;18.10;89.60;;;;;;6159077;22;87662;-79
2023/05/08 08:52:56;;;;;;;110.10;47.13;;;18.10;89.30;;;;;;6186026;22;86889;-78
2023/05/08 08:55:23;;;;;;;100.70;48.55;;;18.10;88.90;;;;;;6187597;22;89155;-79
2023/05/08 08:57:57;;;;;;;120.60;48.75;;;18.00;89.70;;;;;;6185932;22;88850;-80
2023/05/08 09:00:28;;;;;;;106.65;48.20;;;18.00;88.90;;;;;;6159515;22;88368;-79
2023/05/08 09:02:54;;;;;;;118.90;49.50;;;17.90;90.00;;;;;;6185998;22;87950;-79
2023/05/08 09:05:22;;;;;;;111.03;50.00;;;17.90;89.80;;;;;;6186666;22;88601;-80
2023/05/08 09:07:49;;;;;;;121.90;51.15;;;17.90;89.90;;;;;;6185416;22;87299;-80
2023/05/08 09:10:15;;;;;;;118.85;50.45;;;18.00;90.20;;;;;;6158181;22;87481;-81
2023/05/08 09:12:41;;;;;;;122.55;50.28;;;18.00;89.30;;;;;;6186396;22;87148;-80
2023/05/08 09:15:07;;;;;;;110.43;48.50;;;17.90;88.90;;;;;;6185158;22;88455;-78
2023/05/08 09:17:33;;;;;;;115.35;49.33;;;18.00;89.40;;;;;;6160734;22;91048;-77
2023/05/08 09:19:59;;;;;;;107.07;49.42;;;18.10;89.30;;;;;;6159211;22;87351;-77
2023/05/08 09:22:26;;;;;;;108.80;48.95;;;18.20;89.70;;;;;;6185547;22;87406;-78
2023/05/08 09:24:56;;;;;;;99.18;45.72;;;18.40;88.50;;;;;;6185640;22;89950;-77
2023/05/08 09:27:24;;;;;;;102.28;46.90;;;18.40;87.00;;;;;;6158728;22;90357;-78
2023/05/08 09:30:06;;;;;;;96.50;43.67;;;18.40;86.20;;;;;;6186358;22;87443;-78
2023/05/08 09:32:35;;;;;;;97.53;44.33;;;18.60;87.70;;;;;;6160080;22;89399;-82
2023/05/08 09:35:01;;;;;;;97.30;45.03;;;18.70;86.10;;;;;;6158103;22;89102;-80
2023/05/08 09:37:28;;;;;;;93.25;43.05;;;18.80;85.20;;;;;;6159691;22;90668;-80
2023/05/08 09:39:54;;;;;;;80.60;41.17;;;18.90;85.30;;;;;;6159909;22;87145;-82
2023/05/08 09:42:20;;;;;;;78.60;39.67;;;19.00;83.50;;;;;;6159393;22;89624;-81
2023/05/08 09:44:52;;;;;;;77.50;39.80;;;19.10;85.70;;;;;;6160003;22;91770;-82
2023/05/08 09:47:23;;;;;;;66.63;35.80;;;19.30;83.60;;;;;;6160337;22;89946;-81
2023/05/08 09:50:03;;;;;;;70.85;36.95;;;19.40;80.70;;;;;;6185662;22;88268;-81
2023/05/08 09:52:30;;;;;;;68.30;35.75;;;19.50;80.50;;;;;;6159280;22;90407;-78
2023/05/08 09:55:01;;;;;;;66.25;34.92;;;19.60;81.00;;;;;;6186291;22;87596;-79
2023/05/08 09:57:32;;;;;;;66.45;35.00;;;19.60;81.30;;;;;;6185465;22;87532;-79
2023/05/08 10:00:08;;;;;;;63.53;34.28;;;19.70;79.70;;;;;;6186018;22;87471;-79
2023/05/08 10:02:36;;;;;;;65.05;34.67;;;19.90;79.60;;;;;;6160076;22;89946;-79
2023/05/08 10:05:22;;;;;;;62.35;32.40;;;20.00;78.90;;;;;;6185728;22;87677;-79
2023/05/08 10:07:48;;;;;;;61.58;33.15;;;20.10;78.00;;;;;;6158332;22;91782;-78
2023/05/08 10:10:13;;;;;;;56.67;31.42;;;20.30;79.40;;;;;;6186075;22;87267;-79
2023/05/08 10:12:41;;;;;;;62.70;31.35;;;20.40;77.90;;;;;;6158543;22;90167;-79
2023/05/08 10:15:07;;;;;;;53.85;28.98;;;20.30;76.20;;;;;;6185603;22;88618;-79
2023/05/08 10:17:52;;;;;;;54.95;28.27;;;20.30;76.90;;;;;;6186056;22;91417;-78
2023/05/08 10:20:20;;;;;;;51.50;29.17;;;20.50;78.80;;;;;;6183422;22;87582;-78
2023/05/08 10:22:47;;;;;;;51.53;27.10;;;20.80;75.80;;;;;;6182493;22;88723;-78
2023/05/08 10:25:19;;;;;;;57.25;29.30;;;20.90;74.70;;;;;;6181992;22;88003;-79
2023/05/08 10:27:58;;;;;;;56.03;29.20;;;21.20;72.80;;;;;;6182534;22;88685;-78
2023/05/08 10:30:25;;;;;;;49.33;27.23;;;21.20;71.60;;;;;;6184828;22;87491;-79
2023/05/08 10:32:57;;;;;;;52.53;28.10;;;21.20;71.80;;;;;;6158414;22;89406;-78
2023/05/08 10:35:23;;;;;;;57.92;28.90;;;21.20;73.40;;;;;;6187391;22;88107;-79
2023/05/08 10:37:49;;;;;;;56.85;30.20;;;21.10;73.30;;;;;;6158581;22;90839;-81
2023/05/08 10:40:15;;;;;;;54.05;29.02;;;21.10;74.20;;;;;;6186287;22;88421;-82
2023/05/08 10:42:42;;;;;;;54.42;28.40;;;21.20;73.20;;;;;;6159382;22;89432;-82
2023/05/08 10:45:08;;;;;;;50.00;27.20;;;21.50;73.40;;;;;;6185984;22;88073;-83
2023/05/08 10:47:43;;;;;;;50.65;26.83;;;21.60;72.10;;;;;;6160651;22;91608;-77
2023/05/08 10:50:27;;;;;;;55.03;28.27;;;21.60;71.40;;;;;;6159327;22;90525;-78
2023/05/08 10:53:10;;;;;;;55.05;27.27;;;21.90;70.60;;;;;;6157720;22;89054;-77
2023/05/08 10:55:37;;;;;;;54.05;28.13;;;22.00;70.30;;;;;;6186178;22;88600;-78
2023/05/08 10:58:03;;;;;;;60.03;29.85;;;22.20;70.10;;;;;;6185818;22;88904;-77
2023/05/08 11:00:48;;;;;;;51.80;27.88;;;22.50;69.20;;;;;;6158801;22;87460;-78
2023/05/08 11:03:15;;;;;;;49.38;26.45;;;22.70;69.90;;;;;;6185967;22;87513;-79
2023/05/08 11:05:46;;;;;;;48.20;27.80;;;22.80;66.80;;;;;;6186307;22;88754;-79
2023/05/08 11:08:17;;;;;;;56.15;26.83;;;22.80;66.00;;;;;;6186374;22;93121;-79
2023/05/08 11:11:01;;;;;;;50.95;25.38;;;23.00;68.40;;;;;;6184683;22;87613;-82
2023/05/08 11:13:30;;;;;;;49.28;25.70;;;23.20;66.60;;;;;;6158580;22;90954;-80
2023/05/08 11:15:55;;;;;;;44.85;25.88;;;23.40;68.60;;;;;;6185727;22;87910;-79
2023/05/08 11:18:21;;;;;;;46.67;24.73;;;23.60;63.10;;;;;;6185468;22;88575;-80
2023/05/08 11:20:57;;;;;;;44.42;24.70;;;23.60;65.10;;;;;;6158117;22;87737;-81
2023/05/08 11:23:28;;;;;;;55.42;27.55;;;23.50;66.00;;;;;;6160119;22;89148;-80
2023/05/08 11:26:05;;;;;;;58.03;29.23;;;23.20;66.30;;;;;;6159246;22;91647;-81
2023/05/08 11:28:38;;;;;;;54.75;28.67;;;22.90;66.20;;;;;;6186165;22;87713;-81
2023/05/08 11:31:06;;;;;;;56.35;27.08;;;22.80;67.40;;;;;;6185614;22;88305;-80
2023/05/08 11:33:39;;;;;;;46.10;26.30;;;22.70;68.10;;;;;;6158322;22;91528;-80
2023/05/08 11:36:15;;;;;;;51.50;26.65;;;22.90;67.10;;;;;;6186048;22;87670;-80
2023/05/08 11:38:42;;;;;;;50.92;26.95;;;23.30;69.10;;;;;;6187332;22;87515;-81
2023/05/08 11:41:08;;;;;;;39.92;21.63;;;23.70;68.60;;;;;;6185757;22;87593;-80
2023/05/08 11:43:36;;;;;;;53.08;26.67;;;24.30;69.50;;;;;;6185729;22;91010;-80
2023/05/08 11:46:19;;;;;;;44.47;23.63;;;24.70;62.80;;;;;;6185896;22;89122;-78
2023/05/08 11:48:44;;;;;;;45.22;24.00;;;25.00;61.40;;;;;;6186557;22;87611;-79
2023/05/08 11:51:12;;;;;;;47.80;24.33;;;25.10;59.80;;;;;;6185763;22;87455;-79
2023/05/08 11:53:38;;;;;;;35.38;19.95;;;25.10;61.80;;;;;;6159173;22;90669;-79
2023/05/08 11:56:04;;;;;;;36.22;21.70;;;25.00;57.10;;;;;;6158489;22;89939;-79
2023/05/08 11:58:30;;;;;;;35.85;20.63;;;24.60;59.30;;;;;;6157437;22;90162;-79
2023/05/08 12:00:56;;;;;;;34.83;20.75;;;24.50;60.30;;;;;;6184583;22;87555;-79
2023/05/08 12:03:24;;;;;;;37.90;21.05;;;24.60;61.20;;;;;;6157746;22;88564;-79
2023/05/08 12:05:50;;;;;;;32.08;19.65;;;24.90;59.80;;;;;;6184464;22;87935;-79
2023/05/08 12:08:17;;;;;;;30.48;18.42;;;25.00;59.00;;;;;;6159762;22;91610;-79
2023/05/08 12:10:46;;;;;;;33.60;19.85;;;25.30;61.60;;;;;;6185089;22;87915;-83
2023/05/08 12:13:29;;;;;;;34.00;19.77;;;25.00;59.20;;;;;;6183683;22;87482;-79
2023/05/08 12:15:59;;;;;;;32.28;19.27;;;24.90;59.50;;;;;;6186589;22;88996;-79
2023/05/08 12:18:27;;;;;;;34.67;21.63;;;25.00;58.60;;;;;;6186388;22;88300;-78
2023/05/08 12:20:58;;;;;;;32.13;18.92;;;25.20;58.30;;;;;;6157941;22;88496;-79
2023/05/08 12:23:30;;;;;;;30.98;19.23;;;25.30;57.20;;;;;;6159918;22;89860;-79
2023/05/08 12:26:00;;;;;;;30.95;18.88;;;25.50;57.50;;;;;;6186096;22;88219;-79
2023/05/08 12:28:26;;;;;;;34.70;20.92;;;25.50;56.60;;;;;;6185479;22;88437;-79
2023/05/08 12:30:52;;;;;;;37.35;20.60;;;25.30;57.90;;;;;;6154598;22;87549;-79
2023/05/08 12:33:18;;;;;;;36.35;20.88;;;25.00;58.70;;;;;;6154561;22;90874;-79
2023/05/08 12:35:44;;;;;;;30.88;18.77;;;24.60;59.80;;;;;;6157470;22;89399;-79
2023/05/08 12:38:10;;;;;;;30.98;19.30;;;24.50;59.90;;;;;;6160565;22;91518;-79